Terminal Aerodrome Forecast
Issued by NWS

Current Version | Previous Version | Graphics & Text | Print | Product List | Glossary On
Versions: 1 2 3 4 5 6 7 8 9 10 11 12 13 14 15 16 17 18 19
198
FTUS41 KILN 261745
TAFLUK
TAF
KLUK 261745Z 2618/2718 19012G20KT P6SM SKC
     FM270400 19009KT P6SM SCT250 WS020/18040KT
     FM271000 20010KT P6SM VCSH SCT045 OVC090
     FM271400 21014G22KT P6SM OVC028
     FM271700 23014G22KT P6SM OVC035=

USA.gov is the U.S. government's official web portal to all federal, state and local government web resources and services.